Time;durP1;ratioP1;P1;durP2;ratioP2;P2;SDS_P1;SDS_P2;PMS_P1;PMS_P2;Temp;Humidity;BMP_temperature;BMP_pressure;BME280_temperature;BME280_humidity;BME280_pressure;Samples;Min_cycle;Max_cycle;Signal;HPM_P1;HPM_P2
2022/09/23 00:00:29;;;;;;;6.80;4.20;;;;;;;10.54;91.48;100153.96;1628973;88;21167;-69
2022/09/23 00:02:59;;;;;;;7.90;4.37;;;;;;;10.54;91.52;100157.55;1652848;87;21067;-68
2022/09/23 00:05:30;;;;;;;7.20;4.17;;;;;;;10.54;91.44;100158.07;1652447;87;21080;-69
2022/09/23 00:07:59;;;;;;;5.08;4.08;;;;;;;10.54;91.53;100155.33;1629538;86;21450;-69
2022/09/23 00:10:30;;;;;;;7.15;4.60;;;;;;;10.53;91.62;100149.01;1660334;85;21023;-68
2022/09/23 00:13:01;;;;;;;5.87;4.15;;;;;;;10.53;91.56;100148.16;1651104;85;21674;-70
2022/09/23 00:15:32;;;;;;;6.00;3.90;;;;;;;10.52;91.63;100150.05;1636800;87;21295;-70
2022/09/23 00:18:02;;;;;;;6.05;4.42;;;;;;;10.54;91.72;100148.48;1634876;87;21095;-69
2022/09/23 00:20:35;;;;;;;8.50;4.35;;;;;;;10.55;91.65;100152.39;1634818;88;21444;-68
2022/09/23 00:23:06;;;;;;;6.80;4.40;;;;;;;10.56;91.67;100147.75;1634891;87;21472;-68
2022/09/23 00:25:36;;;;;;;5.12;4.05;;;;;;;10.53;91.53;100139.95;1634748;88;21052;-69
2022/09/23 00:28:05;;;;;;;7.53;4.28;;;;;;;10.50;91.60;100138.98;1618855;88;21003;-70
2022/09/23 00:30:35;;;;;;;6.25;4.12;;;;;;;10.51;91.66;100133.83;1594848;88;21080;-69
2022/09/23 00:33:04;;;;;;;7.28;4.37;;;;;;;10.50;91.79;100137.61;1594577;90;21515;-68
2022/09/23 00:35:32;;;;;;;6.12;4.15;;;;;;;10.51;91.90;100133.30;1601635;88;21048;-70
2022/09/23 00:38:02;;;;;;;4.53;3.70;;;;;;;10.53;91.92;100127.09;1620693;88;21083;-70
2022/09/23 00:40:31;;;;;;;5.53;3.95;;;;;;;10.57;91.84;100128.37;1637649;88;21084;-69
2022/09/23 00:43:00;;;;;;;6.33;4.53;;;;;;;10.59;91.75;100129.54;1637659;87;21103;-70
2022/09/23 00:45:31;;;;;;;5.62;4.28;;;;;;;10.60;91.74;100132.60;1637190;88;21103;-69
2022/09/23 00:48:01;;;;;;;5.37;4.03;;;;;;;10.59;91.64;100131.75;1637591;88;21111;-70
2022/09/23 00:50:37;;;;;;;6.03;4.12;;;;;;;10.58;91.68;100134.70;1612661;86;21547;-70
2022/09/23 00:53:10;;;;;;;8.05;3.98;;;;;;;10.61;91.66;100128.81;1620996;87;21074;-71
2022/09/23 00:55:45;;;;;;;6.33;4.37;;;;;;;10.62;91.55;100135.45;1610001;89;21120;-70
2022/09/23 00:58:17;;;;;;;5.90;4.53;;;;;;;10.57;91.31;100127.53;1621159;87;21108;-69
2022/09/23 01:00:46;;;;;;;6.15;4.50;;;;;;;10.51;91.36;100128.34;1610227;88;21484;-69
2022/09/23 01:03:15;;;;;;;6.22;4.22;;;;;;;10.50;91.48;100125.28;1620883;88;21064;-69
2022/09/23 01:05:44;;;;;;;6.28;4.60;;;;;;;10.51;91.49;100121.50;1598210;88;21517;-69
2022/09/23 01:08:13;;;;;;;6.87;4.40;;;;;;;10.51;91.45;100131.09;1597005;87;21144;-70
2022/09/23 01:11:10;;;;;;;7.47;5.00;;;;;;;10.49;91.53;100123.08;1622228;88;21112;-69
2022/09/23 01:14:06;;;;;;;8.43;4.85;;;;;;;10.48;91.57;100121.38;1603366;87;21139;-69
2022/09/23 01:16:55;;;;;;;6.97;4.65;;;;;;;10.50;91.64;100122.55;1676413;85;21028;-70
2022/09/23 01:19:42;;;;;;;6.12;3.80;;;;;;;10.49;91.57;100120.33;1710247;84;21540;-69
2022/09/23 01:22:26;;;;;;;5.50;3.95;;;;;;;10.48;91.60;100118.12;1711617;82;21113;-70
2022/09/23 01:25:00;;;;;;;6.10;4.30;;;;;;;10.47;91.62;100125.17;1739951;82;21059;-70
2022/09/23 01:27:51;;;;;;;5.55;4.28;;;;;;;10.48;91.71;100118.12;1739543;82;21308;-69
2022/09/23 01:30:46;;;;;;;5.55;4.15;;;;;;;10.50;91.59;100121.18;1739734;82;21483;-69
2022/09/23 01:33:32;;;;;;;6.28;3.85;;;;;;;10.47;91.63;100124.64;1739730;82;21471;-70
2022/09/23 01:36:17;;;;;;;6.72;4.37;;;;;;;10.48;91.68;100126.86;1739964;82;21040;-70
2022/09/23 01:39:28;;;;;;;6.40;4.42;;;;;;;10.50;91.68;100117.91;1731575;82;21051;-70
2022/09/23 01:42:34;;;;;;;10.03;4.55;;;;;;;10.50;91.70;100119.28;1682061;85;21452;-69
2022/09/23 01:45:15;;;;;;;7.35;4.45;;;;;;;10.52;91.72;100119.08;1681868;85;21432;-68
2022/09/23 01:47:53;;;;;;;6.83;4.50;;;;;;;10.53;91.68;100110.66;1669137;85;21142;-68
2022/09/23 01:53:37;;;;;;;7.10;4.40;;;;;;;10.51;91.55;100116.02;1649002;87;21041;-68
2022/09/23 01:56:13;;;;;;;7.12;4.25;;;;;;;10.47;91.66;100120.54;1681931;85;21083;-69
2022/09/23 01:59:01;;;;;;;5.85;4.35;;;;;;;10.47;91.78;100109.58;1652580;84;21025;-68
2022/09/23 02:01:41;;;;;;;6.17;4.50;;;;;;;10.51;91.84;100114.66;1710328;84;21099;-70
2022/09/23 02:04:29;;;;;;;7.00;4.60;;;;;;;10.54;91.82;100104.66;1710472;83;21067;-68
2022/09/23 02:07:04;;;;;;;8.78;4.87;;;;;;;10.57;91.81;100106.98;1710532;84;21081;-69
2022/09/23 02:09:41;;;;;;;6.42;5.03;;;;;;;10.59;91.71;100108.47;1710658;84;21024;-68
2022/09/23 02:12:16;;;;;;;7.30;4.55;;;;;;;10.60;91.67;100106.58;1710610;83;21076;-68
2022/09/23 02:15:06;;;;;;;6.12;4.58;;;;;;;10.58;91.48;100110.05;1704224;83;21598;-68
2022/09/23 02:17:47;;;;;;;6.33;4.17;;;;;;;10.58;91.45;100108.67;1705482;83;21020;-68
2022/09/23 02:20:21;;;;;;;6.65;4.25;;;;;;;10.57;91.37;100096.03;1710248;82;21460;-69
2022/09/23 02:23:05;;;;;;;6.90;4.80;;;;;;;10.54;91.39;100099.17;1738629;82;21522;-69
2022/09/23 02:25:59;;;;;;;4.95;4.03;;;;;;;10.52;91.37;100104.02;1730439;82;21052;-69
2022/09/23 02:28:45;;;;;;;5.95;4.60;;;;;;;10.51;91.42;100099.06;1740273;82;21012;-68
2022/09/23 02:31:38;;;;;;;6.25;4.42;;;;;;;10.51;91.43;100104.53;1739734;82;21480;-69
2022/09/23 02:34:36;;;;;;;6.20;4.90;;;;;;;10.51;91.29;100100.43;1739964;82;21051;-68
2022/09/23 02:37:28;;;;;;;6.12;4.67;;;;;;;10.49;91.40;100098.42;1740179;82;21060;-69
2022/09/23 02:40:14;;;;;;;6.33;4.70;;;;;;;10.49;91.50;100097.05;1731662;82;21040;-69
2022/09/23 02:43:07;;;;;;;7.53;4.67;;;;;;;10.50;91.59;100099.27;1703606;84;21064;-69
2022/09/23 02:45:37;;;;;;;6.65;4.50;;;;;;;10.54;91.54;100100.55;1703612;84;21086;-68
2022/09/23 02:48:21;;;;;;;6.22;4.58;;;;;;;10.53;91.52;100099.70;1667669;86;21037;-69
2022/09/23 02:50:50;;;;;;;5.90;4.30;;;;;;;10.55;91.63;100099.49;1703881;83;21163;-68
2022/09/23 02:53:22;;;;;;;6.35;4.65;;;;;;;10.57;91.64;100101.50;1685785;84;21084;-69
2022/09/23 02:55:51;;;;;;;6.33;4.55;;;;;;;10.61;91.45;100105.52;1667345;86;21080;-69
2022/09/23 02:58:20;;;;;;;6.92;4.40;;;;;;;10.57;91.21;100100.13;1667870;84;21028;-69
2022/09/23 03:01:06;;;;;;;7.92;4.60;;;;;;;10.53;91.12;100098.86;1699111;84;21008;-69
2022/09/23 03:04:10;;;;;;;5.70;4.37;;;;;;;10.52;91.19;100099.91;1698831;84;21084;-68
2022/09/23 03:07:31;;;;;;;5.97;4.65;;;;;;;10.50;91.21;100099.27;1698656;84;21472;-70
2022/09/23 03:10:13;;;;;;;6.05;4.30;;;;;;;10.45;91.24;100099.35;1649081;87;21007;-69
2022/09/23 03:13:11;;;;;;;6.03;4.58;;;;;;;10.46;91.37;100099.67;1682127;85;21038;-68
2022/09/23 03:16:23;;;;;;;9.48;5.05;;;;;;;10.47;91.28;100100.52;1682111;85;21103;-70
2022/09/23 03:19:16;;;;;;;8.85;4.78;;;;;;;10.50;91.28;100100.63;1702151;82;21048;-70
2022/09/23 03:22:01;;;;;;;7.60;4.50;;;;;;;10.50;91.31;100102.00;1667483;85;21029;-68
2022/09/23 03:24:31;;;;;;;8.35;4.83;;;;;;;10.48;91.19;100101.69;1667396;86;21079;-70
2022/09/23 03:27:07;;;;;;;6.22;4.10;;;;;;;10.46;91.19;100096.94;1667463;86;21464;-70
2022/09/23 03:29:37;;;;;;;7.15;4.58;;;;;;;10.45;91.24;100099.35;1703498;84;21051;-69
2022/09/23 03:32:07;;;;;;;9.63;5.17;;;;;;;10.46;91.22;100107.05;1703740;84;21487;-69
2022/09/23 03:34:38;;;;;;;6.05;4.40;;;;;;;10.46;91.21;100104.31;1667580;86;21504;-70
2022/09/23 03:37:31;;;;;;;9.35;4.83;;;;;;;10.47;91.14;100106.00;1689692;84;21060;-68
2022/09/23 03:40:22;;;;;;;9.08;4.35;;;;;;;10.48;91.01;100103.05;1739848;82;21396;-68
2022/09/23 03:42:52;;;;;;;7.40;4.65;;;;;;;10.49;90.94;100103.90;1739907;82;21492;-67
2022/09/23 03:45:25;;;;;;;9.30;4.55;;;;;;;10.46;90.87;100103.78;1684549;84;21108;-71
2022/09/23 03:47:55;;;;;;;5.72;4.35;;;;;;;10.47;90.89;100112.84;1740155;82;21020;-69
2022/09/23 03:50:24;;;;;;;9.28;7.10;;;;;;;10.47;90.75;100104.10;1739987;82;21028;-70
2022/09/23 03:52:53;;;;;;;11.75;7.83;;;;;;;10.48;90.59;100104.42;1739880;82;21031;-70
2022/09/23 03:55:23;;;;;;;11.80;7.97;;;;;;;10.49;90.56;100105.27;1739045;82;21071;-69
2022/09/23 03:57:52;;;;;;;8.23;6.08;;;;;;;10.50;90.46;100100.63;1739874;82;21032;-69
2022/09/23 04:00:22;;;;;;;8.03;4.50;;;;;;;10.50;90.29;100108.33;1739809;82;21063;-68
2022/09/23 04:02:51;;;;;;;6.85;4.10;;;;;;;10.50;90.17;100107.48;1739991;82;21075;-69
2022/09/23 04:05:21;;;;;;;6.58;4.40;;;;;;;10.53;90.02;100104.33;1739811;82;21060;-69
2022/09/23 04:07:51;;;;;;;5.40;4.03;;;;;;;10.51;89.86;100103.70;1740083;82;21063;-71
2022/09/23 04:10:20;;;;;;;6.30;4.05;;;;;;;10.52;89.83;100112.23;1704545;84;21497;-69
2022/09/23 04:12:49;;;;;;;7.30;4.37;;;;;;;10.53;89.82;100115.29;1739760;82;21067;-69
2022/09/23 04:15:18;;;;;;;6.03;4.15;;;;;;;10.51;89.73;100111.39;1686377;82;21040;-69
2022/09/23 04:17:48;;;;;;;5.28;3.87;;;;;;;10.51;89.65;100116.02;1697658;82;21553;-70
2022/09/23 04:20:17;;;;;;;6.92;4.25;;;;;;;10.51;89.56;100110.54;1662619;86;21084;-68
2022/09/23 04:22:46;;;;;;;6.92;4.50;;;;;;;10.53;89.60;100118.03;1698962;84;21047;-69
2022/09/23 04:25:16;;;;;;;8.30;5.50;;;;;;;10.55;89.53;100109.92;1662794;86;21511;-68
2022/09/23 04:27:45;;;;;;;7.62;4.10;;;;;;;10.57;89.31;100112.46;1699184;84;21043;-69
2022/09/23 04:30:14;;;;;;;5.42;3.80;;;;;;;10.56;89.07;100108.03;1663060;86;21093;-69
2022/09/23 04:32:43;;;;;;;8.90;4.50;;;;;;;10.58;88.92;100111.41;1702318;82;21040;-69
2022/09/23 04:35:13;;;;;;;8.30;4.90;;;;;;;10.61;88.80;100113.22;1675012;84;21056;-69
2022/09/23 04:37:42;;;;;;;7.67;4.97;;;;;;;10.63;88.81;100116.59;1710552;83;21080;-69
2022/09/23 04:40:14;;;;;;;14.28;4.83;;;;;;;10.65;88.58;100110.91;1710547;83;21465;-70
2022/09/23 04:42:44;;;;;;;8.90;5.33;;;;;;;10.68;88.52;100112.72;1710338;83;21083;-69
2022/09/23 04:45:14;;;;;;;7.42;4.67;;;;;;;10.72;88.42;100109.88;1710502;84;21063;-70
2022/09/23 04:47:44;;;;;;;8.58;4.97;;;;;;;10.77;88.28;100116.11;1710388;84;21095;-70
2022/09/23 04:50:15;;;;;;;7.50;5.17;;;;;;;10.79;88.09;100120.86;1710560;84;21024;-68
2022/09/23 04:52:45;;;;;;;6.50;4.75;;;;;;;10.76;88.04;100114.42;1712236;82;21031;-69
2022/09/23 04:55:13;;;;;;;8.58;5.33;;;;;;;10.77;88.06;100113.38;1710804;83;21071;-68
2022/09/23 04:57:43;;;;;;;7.92;5.20;;;;;;;10.79;88.00;100115.39;1710473;84;21047;-69
2022/09/23 05:00:14;;;;;;;8.50;4.95;;;;;;;10.82;88.02;100116.87;1710577;84;21464;-70
2022/09/23 05:02:45;;;;;;;8.13;4.95;;;;;;;10.84;88.08;100118.35;1710464;84;21064;-70
2022/09/23 05:05:19;;;;;;;10.03;5.25;;;;;;;10.87;88.20;100117.94;1710379;83;21448;-70
2022/09/23 05:07:50;;;;;;;11.57;4.80;;;;;;;10.91;88.23;100119.73;1710356;84;21122;-68
2022/09/23 05:10:21;;;;;;;8.08;4.97;;;;;;;10.94;88.30;100106.47;1710414;84;21047;-69
2022/09/23 05:12:51;;;;;;;9.73;4.78;;;;;;;10.98;88.29;100114.59;1705164;82;21071;-69
2022/09/23 05:15:22;;;;;;;11.18;6.00;;;;;;;11.03;88.22;100116.71;1667010;86;21471;-70
2022/09/23 05:17:52;;;;;;;13.93;5.42;;;;;;;11.02;88.01;100119.98;1667265;86;21530;-69
2022/09/23 05:20:21;;;;;;;9.43;5.60;;;;;;;11.02;87.97;100118.61;1708738;84;21087;-70
2022/09/23 05:22:54;;;;;;;7.25;4.97;;;;;;;11.02;87.94;100122.72;1711617;84;21071;-69
2022/09/23 05:25:22;;;;;;;9.68;5.58;;;;;;;11.03;87.98;100119.45;1711699;84;21142;-69
2022/09/23 05:27:52;;;;;;;7.87;5.22;;;;;;;11.02;87.81;100117.23;1675261;86;21060;-69
2022/09/23 05:30:21;;;;;;;12.68;5.03;;;;;;;11.03;87.86;100116.71;1675428;85;21080;-71
2022/09/23 05:32:51;;;;;;;7.78;4.78;;;;;;;11.06;87.85;100115.80;1688936;85;21062;-68
2022/09/23 05:35:20;;;;;;;8.23;4.60;;;;;;;11.11;87.73;100112.44;1683585;85;21043;-71
2022/09/23 05:37:52;;;;;;;13.68;4.92;;;;;;;11.14;87.61;100115.28;1696774;84;21095;-70
2022/09/23 05:40:20;;;;;;;10.80;5.08;;;;;;;11.15;87.29;100111.49;1717877;83;21483;-69
2022/09/23 05:42:50;;;;;;;7.90;5.00;;;;;;;11.17;87.17;100118.98;1689278;85;21089;-70
2022/09/23 05:45:19;;;;;;;6.78;4.62;;;;;;;11.18;86.95;100116.56;1718048;83;21051;-70
2022/09/23 05:47:49;;;;;;;7.87;4.80;;;;;;;11.21;86.72;100112.03;1717874;83;21063;-71
2022/09/23 05:50:18;;;;;;;6.65;4.58;;;;;;;11.23;86.46;100113.51;1706420;83;21043;-72
2022/09/23 05:52:48;;;;;;;12.28;7.80;;;;;;;11.25;86.19;100114.14;1656129;87;21534;-71
2022/09/23 05:55:17;;;;;;;8.00;5.10;;;;;;;11.25;85.96;100110.55;1638996;87;21432;-70
2022/09/23 05:57:46;;;;;;;7.30;4.50;;;;;;;11.26;85.72;100119.95;1656108;87;21035;-70
2022/09/23 06:00:16;;;;;;;8.53;4.95;;;;;;;11.25;85.38;100122.37;1655994;87;21136;-71
2022/09/23 06:02:48;;;;;;;7.00;4.72;;;;;;;11.24;85.15;100115.72;1639096;87;21063;-71
2022/09/23 06:05:17;;;;;;;7.08;4.70;;;;;;;11.25;85.04;100118.78;1656123;87;21131;-69
2022/09/23 06:07:46;;;;;;;12.07;5.47;;;;;;;11.26;84.93;100112.25;1638875;87;21086;-71
2022/09/23 06:10:16;;;;;;;6.72;4.47;;;;;;;11.27;84.73;100113.41;1670826;84;21545;-67
2022/09/23 06:12:45;;;;;;;11.48;4.70;;;;;;;11.25;84.49;100118.78;1687909;85;21015;-69
2022/09/23 06:15:16;;;;;;;6.72;3.92;;;;;;;11.25;84.39;100114.67;1714894;83;20996;-70
2022/09/23 06:17:47;;;;;;;6.33;3.80;;;;;;;11.26;84.36;100117.73;1701439;84;21501;-70
2022/09/23 06:20:17;;;;;;;5.85;3.33;;;;;;;11.29;84.50;100122.27;1650478;86;21095;-71
2022/09/23 06:22:47;;;;;;;8.15;3.98;;;;;;;11.37;84.35;100123.97;1683969;85;21044;-69
2022/09/23 06:25:18;;;;;;;6.62;4.12;;;;;;;11.41;83.88;100125.23;1654783;86;21064;-72
2022/09/23 06:27:54;;;;;;;6.25;4.03;;;;;;;11.46;83.74;100123.23;1684238;84;21038;-70
2022/09/23 06:30:25;;;;;;;7.58;4.03;;;;;;;11.52;83.56;100128.72;1655081;86;21115;-70
2022/09/23 06:32:56;;;;;;;7.78;3.92;;;;;;;11.59;83.34;100126.83;1683942;85;21146;-73
2022/09/23 06:35:27;;;;;;;21.57;5.28;;;;;;;11.65;82.94;100132.84;1655076;87;21088;-70
2022/09/23 06:37:56;;;;;;;10.90;5.28;;;;;;;11.69;82.36;100124.50;1683877;84;21024;-69
2022/09/23 06:40:25;;;;;;;24.27;6.67;;;;;;;11.72;82.09;100127.38;1654922;86;21017;-70
2022/09/23 06:43:01;;;;;;;12.07;5.35;;;;;;;11.75;81.94;100126.42;1683922;85;21036;-71
2022/09/23 06:45:33;;;;;;;12.47;4.78;;;;;;;11.78;81.67;100122.97;1654996;87;21096;-69
2022/09/23 06:48:07;;;;;;;10.85;5.20;;;;;;;11.80;81.39;100125.83;1683933;84;21087;-70
2022/09/23 06:50:33;;;;;;;11.28;4.80;;;;;;;11.83;81.30;100124.55;1602386;89;21053;-70
2022/09/23 06:53:03;;;;;;;17.98;6.08;;;;;;;11.83;81.09;100123.18;1602516;89;21056;-70
2022/09/23 06:55:33;;;;;;;9.80;5.92;;;;;;;11.85;81.02;100121.06;1602628;89;21107;-71
2022/09/23 06:58:03;;;;;;;8.83;5.00;;;;;;;11.88;80.93;100124.23;1602439;89;21071;-70
2022/09/23 07:00:33;;;;;;;9.85;5.12;;;;;;;11.90;80.67;100124.02;1602413;89;21096;-70
2022/09/23 07:03:07;;;;;;;10.00;5.60;;;;;;;11.92;80.39;100119.16;1602604;89;21128;-72
2022/09/23 07:05:37;;;;;;;13.95;6.72;;;;;;;11.94;80.34;100123.91;1602495;89;21094;-69
2022/09/23 07:08:10;;;;;;;10.50;6.62;;;;;;;11.98;80.29;100125.16;1615410;86;21055;-70
2022/09/23 07:10:40;;;;;;;10.60;5.80;;;;;;;11.98;80.07;100124.64;1667852;85;21107;-69
2022/09/23 07:13:09;;;;;;;11.20;5.80;;;;;;;12.02;80.13;100121.78;1651385;87;21496;-70
2022/09/23 07:15:41;;;;;;;8.43;5.47;;;;;;;12.10;79.98;100115.75;1667384;84;21032;-68
2022/09/23 07:18:11;;;;;;;18.02;6.25;;;;;;;12.16;79.72;100119.00;1651529;86;21083;-71
2022/09/23 07:20:41;;;;;;;9.65;5.22;;;;;;;12.20;79.23;100115.61;1648780;86;21059;-69
2022/09/23 07:23:10;;;;;;;9.98;5.37;;;;;;;12.22;78.99;100111.27;1646175;87;21076;-70
2022/09/23 07:25:41;;;;;;;8.43;5.70;;;;;;;12.25;78.83;100110.31;1662789;86;21441;-70
2022/09/23 07:28:11;;;;;;;7.72;5.33;;;;;;;12.29;78.65;100110.20;1717563;82;21111;-70
2022/09/23 07:30:40;;;;;;;7.50;4.97;;;;;;;12.31;78.32;100103.95;1702458;84;21069;-70
2022/09/23 07:33:11;;;;;;;9.85;5.60;;;;;;;12.32;78.05;100108.92;1738110;82;21059;-68
2022/09/23 07:35:43;;;;;;;8.38;5.28;;;;;;;12.30;77.91;100111.04;1737218;82;21532;-68
2022/09/23 07:38:12;;;;;;;10.20;5.65;;;;;;;12.28;78.78;100122.77;1739889;82;21024;-64
2022/09/23 07:40:44;;;;;;;13.93;6.45;;;;;;;12.26;80.17;100119.40;1739668;82;21029;-65
2022/09/23 07:43:13;;;;;;;11.18;6.00;;;;;;;12.18;81.41;100119.63;1739928;82;21016;-66
2022/09/23 07:45:44;;;;;;;10.88;5.62;;;;;;;12.11;82.50;100118.27;1704877;84;21000;-66
2022/09/23 07:48:14;;;;;;;8.35;4.58;;;;;;;12.04;83.95;100117.45;1706124;82;21094;-66
2022/09/23 07:50:43;;;;;;;8.30;3.22;;;;;;;11.96;85.52;100117.67;1657346;85;21082;-67
2022/09/23 07:53:14;;;;;;;6.37;3.50;;;;;;;11.84;86.19;100114.73;1693445;84;21045;-68
2022/09/23 07:55:52;;;;;;;5.72;2.80;;;;;;;11.68;87.03;100115.95;1706757;84;21529;-67
2022/09/23 07:58:22;;;;;;;5.83;3.20;;;;;;;11.56;88.29;100113.52;1710176;84;21102;-66
2022/09/23 08:00:52;;;;;;;6.90;3.00;;;;;;;11.45;88.84;100103.19;1710302;83;21537;-66
2022/09/23 08:03:22;;;;;;;5.62;2.58;;;;;;;11.33;89.32;100101.59;1710330;84;21063;-67
2022/09/23 08:05:52;;;;;;;6.78;3.17;;;;;;;11.24;89.75;100104.75;1710289;83;21060;-67
2022/09/23 08:08:22;;;;;;;3.72;2.00;;;;;;;11.15;90.02;100108.75;1737804;82;21106;-67
2022/09/23 08:10:51;;;;;;;4.35;2.05;;;;;;;11.07;90.75;100110.64;1739794;82;21051;-68
2022/09/23 08:13:20;;;;;;;4.00;1.50;;;;;;;11.08;91.35;100111.48;1739703;82;21055;-70
2022/09/23 08:15:49;;;;;;;2.65;1.60;;;;;;;11.03;91.66;100105.22;1739642;82;21099;-68
2022/09/23 08:18:20;;;;;;;3.22;1.60;;;;;;;10.99;91.96;100109.42;1739598;82;21043;-68
2022/09/23 08:20:50;;;;;;;4.22;1.60;;;;;;;10.94;92.12;100102.35;1732508;82;21044;-69
2022/09/23 08:23:19;;;;;;;3.80;1.85;;;;;;;10.90;92.49;100101.08;1697389;83;21553;-68
2022/09/23 08:25:58;;;;;;;3.17;1.67;;;;;;;10.84;92.63;100108.76;1683934;84;20996;-68
2022/09/23 08:28:28;;;;;;;3.52;1.47;;;;;;;10.81;93.04;100106.43;1683781;84;21048;-68
2022/09/23 08:30:57;;;;;;;3.40;1.65;;;;;;;10.76;93.30;100107.58;1654871;87;21084;-73
2022/09/23 08:33:27;;;;;;;6.35;2.50;;;;;;;10.74;93.68;100114.63;1683075;85;21004;-71
2022/09/23 08:36:01;;;;;;;5.65;2.20;;;;;;;10.75;94.13;100117.69;1620734;86;21012;-70
2022/09/23 08:38:30;;;;;;;3.87;1.67;;;;;;;10.76;94.57;100117.17;1683778;85;21000;-73
2022/09/23 08:41:36;;;;;;;7.40;2.20;;;;;;;10.79;95.00;100115.39;1654712;87;21064;-72
2022/09/23 08:44:23;;;;;;;7.50;2.58;;;;;;;10.80;95.21;100121.19;1683773;84;21472;-71
2022/09/23 08:47:20;;;;;;;7.92;2.87;;;;;;;10.79;95.49;100115.39;1627600;88;21464;-70
2022/09/23 08:50:00;;;;;;;7.17;2.65;;;;;;;10.85;95.96;100110.98;1628329;88;21087;-71
2022/09/23 08:52:38;;;;;;;5.20;3.42;;;;;;;10.86;96.21;100106.66;1628436;88;21087;-72
2022/09/23 08:55:11;;;;;;;8.58;3.33;;;;;;;10.90;96.66;100091.48;1657978;86;20999;-70
2022/09/23 08:58:18;;;;;;;7.00;3.58;;;;;;;10.96;97.07;100092.02;1666321;85;21030;-69
2022/09/23 09:01:16;;;;;;;8.00;3.50;;;;;;;11.02;97.26;100093.09;1648655;86;21094;-70
2022/09/23 09:04:05;;;;;;;11.12;3.98;;;;;;;11.08;97.52;100099.98;1654820;86;21036;-69
2022/09/23 09:06:43;;;;;;;6.37;3.52;;;;;;;11.13;97.70;100096.62;1655821;86;21052;-70
2022/09/23 09:09:25;;;;;;;5.37;3.30;;;;;;;11.15;97.92;100088.19;1654470;86;21048;-69
2022/09/23 09:12:02;;;;;;;7.85;3.62;;;;;;;11.13;98.04;100085.65;1656117;86;21043;-69
2022/09/23 09:14:44;;;;;;;4.62;3.05;;;;;;;11.17;98.46;100085.55;1654817;87;21079;-71
2022/09/23 09:17:27;;;;;;;5.97;3.50;;;;;;;11.22;98.77;100089.88;1656243;86;21113;-70
2022/09/23 09:20:56;;;;;;;5.80;3.60;;;;;;;11.26;98.99;100087.56;1686103;85;21035;-70
2022/09/23 09:23:37;;;;;;;5.03;3.80;;;;;;;11.25;99.08;100085.34;1713054;84;21111;-70
2022/09/23 09:26:11;;;;;;;9.08;4.10;;;;;;;11.30;99.60;100086.09;1712775;84;21074;-70
2022/09/23 09:28:51;;;;;;;7.67;3.90;;;;;;;11.31;99.72;100095.47;1712867;84;21118;-72
2022/09/23 09:31:34;;;;;;;8.68;4.87;;;;;;;11.32;100.00;100089.47;1712665;84;21068;-71
2022/09/23 09:34:14;;;;;;;7.35;3.65;;;;;;;11.35;100.00;100091.78;1709689;84;21048;-73
2022/09/23 09:36:54;;;;;;;6.17;4.17;;;;;;;11.33;100.00;100089.78;1688095;84;21565;-72
2022/09/23 09:39:29;;;;;;;6.55;3.50;;;;;;;11.36;100.00;100092.95;1712921;84;21063;-72
2022/09/23 09:41:59;;;;;;;7.60;3.55;;;;;;;11.38;100.00;100094.11;1712971;84;21028;-73
2022/09/23 09:44:52;;;;;;;5.95;3.52;;;;;;;11.38;100.00;100094.95;1712803;84;21048;-72
2022/09/23 09:47:45;;;;;;;6.83;3.55;;;;;;;11.42;100.00;100096.22;1712450;84;21072;-72
2022/09/23 09:50:38;;;;;;;7.22;4.03;;;;;;;11.41;100.00;100099.17;1660615;86;21063;-74
2022/09/23 09:53:25;;;;;;;7.25;3.72;;;;;;;11.42;100.00;100086.62;1646052;86;21107;-74
2022/09/23 09:56:08;;;;;;;8.50;4.45;;;;;;;11.48;100.00;100080.81;1637343;88;21575;-72
2022/09/23 09:58:53;;;;;;;6.70;4.30;;;;;;;11.56;100.00;100088.83;1621276;88;21076;-73
2022/09/23 10:01:28;;;;;;;9.53;4.85;;;;;;;11.62;100.00;100079.75;1635708;88;21123;-73
2022/09/23 10:04:03;;;;;;;7.08;4.50;;;;;;;11.74;100.00;100082.72;1637304;88;21516;-74
2022/09/23 10:06:34;;;;;;;7.53;5.28;;;;;;;11.84;100.00;100077.67;1616152;88;21095;-73
2022/09/23 10:09:15;;;;;;;7.47;5.40;;;;;;;11.88;100.00;100078.09;1671541;84;21764;-74
2022/09/23 10:12:10;;;;;;;5.62;4.40;;;;;;;11.98;100.00;100082.61;1688941;84;21040;-74
2022/09/23 10:14:39;;;;;;;7.80;5.00;;;;;;;12.05;100.00;100081.53;1712793;84;21529;-72
2022/09/23 10:17:20;;;;;;;7.65;5.35;;;;;;;12.10;100.00;100073.17;1712930;84;21012;-72
2022/09/23 10:19:59;;;;;;;6.92;4.85;;;;;;;12.14;100.00;100071.69;1702824;84;21054;-74
2022/09/23 10:22:28;;;;;;;8.40;5.97;;;;;;;12.15;100.00;100072.84;1606786;88;21180;-71
2022/09/23 10:25:02;;;;;;;9.18;5.17;;;;;;;12.14;100.00;100067.03;1625050;88;21100;-73
2022/09/23 10:27:33;;;;;;;10.50;5.55;;;;;;;12.17;100.00;100062.48;1624809;88;21069;-72
2022/09/23 10:30:20;;;;;;;7.12;4.90;;;;;;;12.22;100.00;100064.05;1656728;86;21070;-72
2022/09/23 10:32:53;;;;;;;9.03;4.40;;;;;;;12.24;100.00;100063.30;1648296;86;21062;-72
2022/09/23 10:35:25;;;;;;;5.35;3.92;;;;;;;12.30;100.00;100064.34;1670102;86;21521;-73
2022/09/23 10:38:00;;;;;;;4.40;3.42;;;;;;;12.34;100.00;100066.43;1670036;86;21473;-73
2022/09/23 10:46:45;;;;;;;5.37;3.20;;;;;;;12.44;100.00;100061.88;1670084;86;21058;-72
2022/09/23 10:49:26;;;;;;;8.23;3.20;;;;;;;12.49;100.00;100063.44;1670198;84;21056;-73
2022/09/23 10:52:37;;;;;;;13.08;3.90;;;;;;;12.48;100.00;100059.54;1658252;86;21028;-74
2022/09/23 10:55:41;;;;;;;6.72;2.83;;;;;;;12.50;100.00;100062.91;1657944;86;21266;-77
2022/09/23 10:58:50;;;;;;;8.00;3.58;;;;;;;12.49;99.84;100062.59;1646646;86;21114;-74
2022/09/23 11:01:52;;;;;;;6.12;3.27;;;;;;;12.44;99.28;100058.29;1631817;88;21072;-74
2022/09/23 11:04:51;;;;;;;8.68;3.75;;;;;;;12.43;99.39;100054.70;1604424;89;21068;-72
2022/09/23 11:08:03;;;;;;;6.15;3.67;;;;;;;12.44;99.18;100061.04;1669928;84;21124;-75
2022/09/23 11:10:50;;;;;;;5.55;3.37;;;;;;;12.41;98.97;100061.47;1670134;86;21533;-75
2022/09/23 11:13:37;;;;;;;5.87;4.22;;;;;;;12.37;98.94;100066.03;1670273;86;21043;-73
2022/09/23 11:16:37;;;;;;;8.63;4.00;;;;;;;12.33;98.90;100057.87;1670221;86;21456;-75
2022/09/23 11:19:33;;;;;;;8.85;3.75;;;;;;;12.33;99.27;100059.25;1670011;84;21119;-74
2022/09/23 11:22:19;;;;;;;8.95;4.10;;;;;;;12.30;98.73;100058.84;1671380;85;21095;-74
2022/09/23 11:25:15;;;;;;;8.95;5.20;;;;;;;12.26;98.62;100057.59;1661276;86;21094;-76
2022/09/23 11:28:18;;;;;;;6.15;3.83;;;;;;;12.22;98.42;100054.44;1673160;86;21505;-72
2022/09/23 11:31:23;;;;;;;4.75;2.50;;;;;;;12.23;98.77;100057.49;1661266;86;21054;-73
2022/09/23 11:33:58;;;;;;;4.45;2.25;;;;;;;12.28;98.27;100061.81;1641053;86;21192;-73
2022/09/23 11:36:40;;;;;;;5.12;2.70;;;;;;;12.24;97.03;100057.81;1673140;84;21428;-74
2022/09/23 11:39:28;;;;;;;5.05;2.60;;;;;;;12.25;96.99;100053.16;1661154;86;21035;-70
2022/09/23 11:41:59;;;;;;;5.42;2.52;;;;;;;12.26;96.54;100057.06;1670104;85;21064;-74
2022/09/23 11:44:41;;;;;;;6.20;2.80;;;;;;;12.28;96.64;100048.08;1658054;86;21423;-74
2022/09/23 11:47:29;;;;;;;4.60;2.60;;;;;;;12.31;96.64;100042.14;1648360;86;21024;-74
2022/09/23 11:50:26;;;;;;;3.80;2.60;;;;;;;12.32;96.34;100041.08;1650702;86;21551;-74
2022/09/23 11:53:24;;;;;;;3.35;2.17;;;;;;;12.32;96.12;100045.73;1659413;85;21099;-72
2022/09/23 11:56:03;;;;;;;1.92;1.50;;;;;;;12.32;95.37;100046.58;1657919;86;21578;-74
2022/09/23 11:58:41;;;;;;;2.12;1.37;;;;;;;12.32;94.89;100042.45;1657958;86;21071;-74
2022/09/23 12:01:30;;;;;;;1.92;1.40;;;;;;;12.36;94.77;100040.98;1691422;84;21400;-73
2022/09/23 12:04:30;;;;;;;3.08;1.40;;;;;;;12.36;94.42;100047.86;1698094;84;21495;-74
2022/09/23 12:07:14;;;;;;;3.15;1.32;;;;;;;12.32;93.76;100049.86;1685781;85;21071;-73
2022/09/23 12:10:04;;;;;;;3.90;1.32;;;;;;;12.26;92.96;100043.33;1698149;84;21036;-74
2022/09/23 12:13:05;;;;;;;6.42;1.70;;;;;;;12.19;91.99;100041.67;1685570;85;21068;-75
2022/09/23 12:16:00;;;;;;;4.03;1.87;;;;;;;12.10;91.41;100034.20;1657364;86;21044;-75
2022/09/23 12:18:50;;;;;;;2.75;1.62;;;;;;;12.03;90.79;100032.84;1669899;86;21086;-72
2022/09/23 12:21:49;;;;;;;3.12;1.50;;;;;;;12.03;91.01;100037.50;1652560;86;21039;-73